Time;durP1;ratioP1;P1;durP2;ratioP2;P2;SDS_P1;SDS_P2;PMS_P1;PMS_P2;Temp;Humidity;BMP_temperature;BMP_pressure;BME280_temperature;BME280_humidity;BME280_pressure;Samples;Min_cycle;Max_cycle;Signal;HPM_P1;HPM_P2
2021/05/06 00:33:04;;;;;;;4.65;2.58;;;7.30;69.40;;;;;;5020901;28;20117;-90
2021/05/06 00:35:33;;;;;;;2.67;2.33;;;7.30;69.50;;;;;;5011843;28;20075;-88
2021/05/06 00:38:21;;;;;;;2.40;2.20;;;7.20;69.60;;;;;;4999232;28;20025;-90
2021/05/06 00:54:26;;;;;;;3.50;2.85;;;7.20;70.10;;;;;;5029032;28;20124;-90
2021/05/06 01:04:37;;;;;;;4.70;2.63;;;7.20;70.10;;;;;;5024882;28;20087;-88
2021/05/06 01:09:51;;;;;;;3.00;2.40;;;7.20;70.10;;;;;;5022687;28;20065;-88
2021/05/06 01:12:16;;;;;;;2.63;2.40;;;7.30;70.00;;;;;;5032684;28;20017;-90
2021/05/06 01:14:42;;;;;;;3.20;2.80;;;7.30;70.00;;;;;;5024198;28;20025;-88
2021/05/06 01:17:08;;;;;;;2.85;2.42;;;7.20;70.20;;;;;;5016882;28;20103;-87
2021/05/06 01:19:33;;;;;;;2.92;2.50;;;7.20;70.20;;;;;;5008657;28;20010;-88
2021/05/06 01:21:59;;;;;;;3.10;2.75;;;7.20;70.20;;;;;;5030388;28;20029;-88
2021/05/06 01:24:25;;;;;;;2.90;2.60;;;7.20;70.30;;;;;;5031308;28;20067;-88
2021/05/06 01:27:06;;;;;;;3.92;2.70;;;7.20;70.30;;;;;;5008892;28;20013;-89
2021/05/06 01:29:49;;;;;;;3.88;2.97;;;7.10;70.30;;;;;;5014601;28;20497;-89
2021/05/06 01:34:44;;;;;;;3.40;2.75;;;7.10;70.50;;;;;;5031495;28;20045;-89
2021/05/06 01:37:26;;;;;;;3.22;2.92;;;7.10;70.50;;;;;;5013629;28;20033;-88
2021/05/06 01:42:42;;;;;;;3.05;2.72;;;7.10;70.60;;;;;;5015006;28;20374;-88
2021/05/06 02:00:38;;;;;;;5.25;4.75;;;6.60;72.70;;;;;;5023294;28;20504;-89
2021/05/06 02:03:04;;;;;;;7.55;6.10;;;6.60;72.90;;;;;;5030259;28;20067;-89
2021/05/06 02:05:30;;;;;;;7.25;6.18;;;6.50;73.60;;;;;;5031173;28;20041;-89
2021/05/06 02:07:56;;;;;;;5.90;5.22;;;6.50;74.30;;;;;;5031187;28;20018;-89
2021/05/06 02:10:26;;;;;;;7.53;6.35;;;6.40;74.60;;;;;;5031303;28;20463;-88
2021/05/06 02:12:52;;;;;;;6.63;5.93;;;6.40;74.90;;;;;;5031548;28;20025;-89
2021/05/06 02:15:42;;;;;;;4.68;4.18;;;6.40;75.20;;;;;;5031012;28;20013;-89
2021/05/06 02:18:05;;;;;;;5.07;4.28;;;6.40;75.10;;;;;;5025685;28;20044;-89
2021/05/06 02:20:30;;;;;;;5.88;5.00;;;6.40;74.80;;;;;;5026722;28;20109;-90
2021/05/06 02:22:56;;;;;;;5.68;5.07;;;6.40;75.00;;;;;;5012330;28;20080;-90
2021/05/06 02:25:21;;;;;;;4.15;3.50;;;6.40;75.30;;;;;;5020715;28;20026;-90
2021/05/06 02:27:48;;;;;;;3.75;3.35;;;6.40;75.20;;;;;;5023959;28;20029;-90
2021/05/06 02:30:14;;;;;;;3.35;3.00;;;6.50;75.00;;;;;;5011835;28;20034;-90
2021/05/06 02:32:40;;;;;;;3.20;2.83;;;6.50;74.70;;;;;;5025368;28;20511;-90
2021/05/06 02:35:06;;;;;;;3.05;2.70;;;6.60;74.50;;;;;;5013389;28;20021;-90
2021/05/06 02:37:32;;;;;;;3.92;3.47;;;6.70;74.40;;;;;;5022651;28;20037;-90
2021/05/06 02:39:58;;;;;;;3.40;3.03;;;6.70;74.10;;;;;;5029364;28;20121;-90
2021/05/06 02:42:23;;;;;;;4.13;3.38;;;6.70;74.10;;;;;;5017881;28;20030;-90
2021/05/06 02:44:49;;;;;;;3.55;3.08;;;6.70;74.10;;;;;;5015353;28;20391;-90
2021/05/06 02:47:15;;;;;;;2.20;2.00;;;6.70;74.00;;;;;;5035940;28;20029;-90
2021/05/06 02:49:45;;;;;;;2.90;2.60;;;6.70;73.90;;;;;;5014539;28;20014;-90
2021/05/06 02:55:08;;;;;;;3.65;3.15;;;6.80;73.70;;;;;;5020415;28;20029;-90
2021/05/06 02:57:39;;;;;;;3.10;2.80;;;6.80;73.70;;;;;;4998417;28;20099;-91
2021/05/06 03:02:52;;;;;;;3.25;2.72;;;6.80;73.60;;;;;;5021742;28;20087;-90
2021/05/06 03:05:19;;;;;;;3.35;3.05;;;6.80;73.50;;;;;;5020109;28;20076;-90
2021/05/06 03:07:52;;;;;;;2.58;2.35;;;6.80;73.60;;;;;;5001859;28;20017;-90
2021/05/06 03:10:34;;;;;;;3.67;2.85;;;6.70;73.50;;;;;;5035478;28;20032;-91
2021/05/06 03:21:33;;;;;;;3.20;2.85;;;6.70;73.70;;;;;;5035655;28;20676;-93
2021/05/06 03:23:59;;;;;;;4.03;3.20;;;6.60;73.70;;;;;;5016815;28;20503;-89
2021/05/06 03:26:25;;;;;;;3.40;3.00;;;6.60;73.70;;;;;;5014946;28;20049;-89
2021/05/06 03:28:57;;;;;;;3.20;2.90;;;6.60;73.80;;;;;;5016516;28;20021;-88
2021/05/06 03:42:15;;;;;;;3.67;3.03;;;6.40;74.00;;;;;;5018066;28;20032;-90
2021/05/06 03:47:57;;;;;;;3.70;3.22;;;6.30;74.00;;;;;;5034398;28;20037;-91
2021/05/06 04:17:33;;;;;;;4.30;3.55;;;6.10;74.80;;;;;;5033422;28;20095;-89
2021/05/06 04:31:01;;;;;;;5.25;4.70;;;6.20;73.90;;;;;;5033794;28;20119;-91
2021/05/06 04:36:16;;;;;;;6.13;5.20;;;6.30;74.60;;;;;;5025435;28;20041;-91
2021/05/06 04:38:42;;;;;;;5.18;4.63;;;6.30;74.00;;;;;;5031510;28;20030;-90
2021/05/06 05:06:28;;;;;;;6.72;5.85;;;6.50;74.30;;;;;;5025432;28;20025;-94
2021/05/06 05:25:01;;;;;;;9.48;8.13;;;6.70;74.80;;;;;;5023549;28;20064;-91
2021/05/06 05:27:27;;;;;;;9.75;8.10;;;6.70;74.90;;;;;;5013513;28;20053;-91
2021/05/06 05:29:54;;;;;;;7.72;5.80;;;6.70;75.00;;;;;;5015073;28;20063;-93
2021/05/06 05:32:20;;;;;;;11.15;8.48;;;6.70;74.80;;;;;;5030726;28;20021;-92
2021/05/06 05:35:08;;;;;;;7.82;5.90;;;6.80;75.00;;;;;;5014811;28;20029;-91
2021/05/06 05:37:45;;;;;;;8.65;7.28;;;6.90;75.00;;;;;;5014333;28;20538;-93
2021/05/06 05:40:18;;;;;;;9.60;7.80;;;6.90;75.00;;;;;;5015115;28;20080;-92
2021/05/06 05:48:40;;;;;;;9.02;7.47;;;6.90;75.00;;;;;;5022449;28;20040;-92
2021/05/06 05:56:04;;;;;;;9.23;7.40;;;7.00;75.20;;;;;;5031931;28;20145;-92
2021/05/06 05:58:30;;;;;;;9.00;7.28;;;7.10;75.10;;;;;;5015187;28;20487;-91
2021/05/06 06:00:55;;;;;;;7.30;5.97;;;7.10;75.00;;;;;;5032246;28;20499;-91
2021/05/06 06:03:21;;;;;;;7.35;6.50;;;7.20;75.00;;;;;;5031859;28;20037;-91
2021/05/06 06:05:47;;;;;;;9.80;8.60;;;7.30;74.90;;;;;;5012809;28;20045;-89
2021/05/06 06:08:16;;;;;;;9.88;7.38;;;7.30;74.80;;;;;;5014217;28;20627;-90
2021/05/06 06:10:42;;;;;;;13.00;10.30;;;7.40;74.70;;;;;;5013961;28;20026;-92
2021/05/06 06:13:08;;;;;;;8.30;7.07;;;7.40;74.80;;;;;;5030019;28;20071;-92
2021/05/06 06:18:35;;;;;;;8.20;6.63;;;7.50;74.60;;;;;;5029377;28;20096;-92
2021/05/06 06:21:30;;;;;;;8.63;6.70;;;7.60;74.50;;;;;;5005827;28;20125;-96
2021/05/06 06:24:07;;;;;;;7.45;5.72;;;7.60;74.70;;;;;;5029615;28;20209;-96
2021/05/06 06:26:33;;;;;;;9.35;7.13;;;7.60;74.70;;;;;;5005440;28;20025;-93
2021/05/06 06:29:07;;;;;;;9.32;7.32;;;7.60;74.70;;;;;;5018316;28;20017;-94
2021/05/06 06:31:38;;;;;;;12.35;10.57;;;7.70;74.80;;;;;;5004587;28;20033;-92
2021/05/06 06:34:04;;;;;;;9.27;8.05;;;7.70;74.80;;;;;;5004141;28;20056;-92
2021/05/06 06:36:30;;;;;;;10.38;8.77;;;7.70;74.80;;;;;;5007701;28;20412;-92
2021/05/06 06:38:56;;;;;;;7.53;5.82;;;7.70;74.80;;;;;;5021098;28;20025;-92
2021/05/06 06:41:22;;;;;;;9.80;7.05;;;7.70;74.80;;;;;;5004211;28;20037;-92
2021/05/06 06:43:50;;;;;;;9.00;7.50;;;7.80;74.80;;;;;;5011709;28;20049;-94
2021/05/06 06:46:17;;;;;;;11.18;8.38;;;7.90;74.70;;;;;;5007093;28;20029;-96
2021/05/06 06:48:43;;;;;;;9.98;7.95;;;7.90;74.50;;;;;;5021735;28;20111;-96
2021/05/06 06:51:08;;;;;;;10.80;7.72;;;7.90;74.70;;;;;;5021918;28;20040;-94
2021/05/06 06:53:34;;;;;;;8.27;6.80;;;8.10;74.70;;;;;;5021070;28;20017;-92
2021/05/06 06:55:59;;;;;;;9.10;7.88;;;8.30;74.40;;;;;;5006477;28;20088;-94
2021/05/06 06:58:25;;;;;;;10.18;8.10;;;8.50;73.80;;;;;;5006830;28;20113;-94
2021/05/06 07:00:51;;;;;;;14.52;12.85;;;8.60;73.50;;;;;;5003646;28;20037;-94
2021/05/06 07:03:17;;;;;;;12.05;10.30;;;8.60;73.50;;;;;;5020826;28;20372;-95
2021/05/06 07:05:43;;;;;;;11.45;8.90;;;8.70;73.60;;;;;;5018146;28;20030;-94
2021/05/06 07:08:25;;;;;;;11.27;8.82;;;8.80;73.40;;;;;;5018355;28;20025;-93
2021/05/06 07:10:54;;;;;;;11.38;9.18;;;9.40;72.50;;;;;;5007194;28;20040;-92
2021/05/06 07:13:21;;;;;;;9.65;7.80;;;9.40;71.70;;;;;;5025648;28;20501;-93
2021/05/06 07:15:51;;;;;;;9.68;8.55;;;9.20;72.00;;;;;;5020213;28;20022;-96
2021/05/06 07:18:18;;;;;;;9.27;6.88;;;9.10;72.40;;;;;;5025932;28;20061;-95
2021/05/06 07:20:45;;;;;;;9.80;8.45;;;9.10;72.70;;;;;;5006258;28;20022;-96
2021/05/06 07:23:12;;;;;;;13.30;11.52;;;9.30;72.50;;;;;;5004073;28;20029;-95
2021/05/06 07:25:38;;;;;;;7.65;6.38;;;9.80;71.90;;;;;;5027068;28;20129;-94
2021/05/06 07:28:33;;;;;;;13.68;11.32;;;10.20;70.30;;;;;;5006796;28;20077;-94
2021/05/06 07:31:03;;;;;;;12.60;10.90;;;9.90;70.30;;;;;;5016454;28;20762;-94
2021/05/06 07:33:32;;;;;;;8.55;7.65;;;9.50;70.80;;;;;;5008869;28;20116;-94
2021/05/06 07:35:59;;;;;;;8.90;7.82;;;9.40;71.50;;;;;;5029149;28;20040;-94
2021/05/06 07:38:27;;;;;;;9.35;7.97;;;9.40;71.70;;;;;;5035434;28;20515;-95
2021/05/06 07:40:53;;;;;;;9.15;7.88;;;9.50;71.70;;;;;;5010102;28;20022;-95
2021/05/06 07:43:19;;;;;;;7.60;6.32;;;9.70;71.50;;;;;;5035097;28;20034;-96
2021/05/06 07:45:45;;;;;;;8.77;7.28;;;10.00;71.10;;;;;;5031482;28;20030;-96
2021/05/06 07:48:11;;;;;;;11.88;10.68;;;10.20;70.60;;;;;;5036114;28;20025;-96
2021/05/06 07:50:37;;;;;;;10.70;9.60;;;10.50;70.20;;;;;;5044262;28;20037;-96
2021/05/06 07:53:06;;;;;;;10.20;8.93;;;10.40;69.40;;;;;;5035368;28;20038;-96
2021/05/06 07:55:33;;;;;;;8.73;7.80;;;10.30;69.50;;;;;;5011250;28;20327;-96
2021/05/06 07:57:59;;;;;;;8.30;7.38;;;10.30;69.70;;;;;;5032241;28;20022;-96
2021/05/06 08:05:39;;;;;;;6.93;5.85;;;10.90;68.90;;;;;;5659299;22;20230;-96
2021/05/06 08:08:05;;;;;;;8.25;6.80;;;10.90;68.70;;;;;;5027277;28;20041;-96
2021/05/06 08:10:32;;;;;;;6.22;5.63;;;10.80;68.60;;;;;;5005674;28;20116;-96
2021/05/06 08:12:58;;;;;;;6.65;5.97;;;10.80;68.80;;;;;;5017471;28;20021;-96
2021/05/06 08:15:25;;;;;;;7.85;7.05;;;10.90;68.60;;;;;;4998460;28;20038;-95
2021/05/06 08:17:51;;;;;;;6.00;5.40;;;10.90;67.30;;;;;;5000097;28;20022;-96
2021/05/06 08:20:17;;;;;;;7.75;6.90;;;10.90;67.10;;;;;;4997564;28;20427;-94
2021/05/06 08:22:43;;;;;;;6.07;5.35;;;10.90;66.80;;;;;;5003116;28;20113;-96
2021/05/06 08:25:10;;;;;;;4.78;4.28;;;10.90;66.70;;;;;;5000127;28;20018;-96
2021/05/06 08:27:39;;;;;;;5.45;4.80;;;11.00;66.60;;;;;;4995155;28;20047;-96
2021/05/06 08:30:06;;;;;;;6.00;5.03;;;11.00;66.40;;;;;;5001326;28;20057;-94
2021/05/06 08:32:32;;;;;;;5.28;4.38;;;10.90;66.10;;;;;;5010233;28;20092;-95
2021/05/06 08:34:58;;;;;;;5.55;4.90;;;10.70;66.40;;;;;;5014841;28;20026;-96
2021/05/06 08:37:24;;;;;;;5.03;4.18;;;10.60;65.90;;;;;;5015755;28;20030;-96
2021/05/06 08:39:50;;;;;;;4.03;3.63;;;10.50;66.50;;;;;;5180840;22;20025;-95
2021/05/06 08:42:16;;;;;;;5.35;3.72;;;10.60;66.60;;;;;;5050700;28;20039;-96
2021/05/06 08:44:43;;;;;;;4.20;3.80;;;10.90;66.60;;;;;;5064892;23;20041;-95
2021/05/06 08:47:13;;;;;;;3.63;3.28;;;11.10;66.30;;;;;;5049141;28;20002;-96
2021/05/06 08:49:39;;;;;;;5.75;4.55;;;11.20;65.70;;;;;;5053885;28;20110;-93
2021/05/06 08:52:07;;;;;;;7.05;5.35;;;11.30;65.10;;;;;;5030757;28;20042;-95
2021/05/06 08:54:46;;;;;;;5.35;4.30;;;11.40;63.60;;;;;;5051458;28;20001;-96
2021/05/06 08:57:14;;;;;;;5.43;4.68;;;11.50;63.30;;;;;;5038967;28;20075;-96
2021/05/06 08:59:39;;;;;;;3.97;3.58;;;11.40;62.90;;;;;;5054623;28;20013;-96
2021/05/06 09:07:10;;;;;;;8.32;5.90;;;11.00;63.80;;;;;;5039509;28;20052;-96
2021/05/06 09:09:44;;;;;;;5.97;5.00;;;10.80;64.10;;;;;;5035789;28;20053;-96
2021/05/06 09:12:09;;;;;;;4.47;4.05;;;10.70;63.00;;;;;;5052800;28;20087;-96
2021/05/06 09:17:27;;;;;;;4.90;4.00;;;10.60;63.50;;;;;;5088977;22;20049;-96
2021/05/06 09:22:41;;;;;;;5.78;4.40;;;10.70;63.80;;;;;;5045144;28;20049;-96
2021/05/06 09:25:28;;;;;;;6.70;5.85;;;11.00;63.80;;;;;;5031408;28;20062;-96
2021/05/06 09:28:07;;;;;;;6.78;5.43;;;11.00;63.00;;;;;;5020668;28;20026;-96
2021/05/06 09:30:49;;;;;;;6.22;5.13;;;11.10;62.90;;;;;;5018193;28;20057;-94
2021/05/06 09:33:15;;;;;;;7.60;5.55;;;11.10;62.80;;;;;;5013211;28;20030;-95
2021/05/06 09:35:46;;;;;;;5.85;4.97;;;11.10;62.60;;;;;;5013382;28;20061;-95
2021/05/06 09:40:47;;;;;;;8.13;7.10;;;11.20;62.50;;;;;;5273966;22;20569;-96
2021/05/06 09:43:34;;;;;;;7.25;6.18;;;11.30;61.80;;;;;;5037331;28;20037;-95
2021/05/06 09:46:01;;;;;;;6.22;5.13;;;11.50;61.60;;;;;;5034698;28;20526;-96
2021/05/06 09:48:28;;;;;;;5.38;4.43;;;11.70;61.50;;;;;;5015652;28;21269;-96
2021/05/06 09:51:04;;;;;;;6.95;6.20;;;11.70;61.40;;;;;;5016542;28;20025;-96
2021/05/06 09:53:56;;;;;;;6.22;5.10;;;11.70;60.70;;;;;;5036211;28;20040;-96
2021/05/06 09:56:25;;;;;;;10.82;6.30;;;11.60;59.90;;;;;;5043929;28;20037;-96
2021/05/06 09:58:53;;;;;;;7.13;5.30;;;11.50;59.90;;;;;;5260895;23;20033;-96
2021/05/06 10:01:19;;;;;;;6.10;5.43;;;11.50;60.50;;;;;;5296896;22;20136;-95
2021/05/06 10:03:45;;;;;;;5.38;4.82;;;11.50;60.10;;;;;;5030606;28;20500;-96
2021/05/06 10:06:21;;;;;;;4.75;4.05;;;11.50;60.00;;;;;;5040921;28;20112;-96
2021/05/06 10:08:49;;;;;;;5.65;4.75;;;11.60;60.10;;;;;;5254576;23;20013;-96
2021/05/06 10:11:19;;;;;;;3.70;3.30;;;11.60;59.20;;;;;;5047248;28;20038;-96
2021/05/06 10:13:48;;;;;;;3.40;2.95;;;11.70;59.50;;;;;;5023110;28;20030;-95
2021/05/06 10:16:14;;;;;;;4.65;4.00;;;11.80;59.60;;;;;;5004307;28;20053;-96
2021/05/06 10:18:41;;;;;;;7.70;5.78;;;11.90;59.50;;;;;;5024865;28;21129;-96
2021/05/06 10:21:09;;;;;;;5.30;3.90;;;12.10;59.00;;;;;;5023993;28;20171;-95
2021/05/06 10:23:37;;;;;;;5.82;4.82;;;12.20;58.80;;;;;;5024250;28;20057;-95
2021/05/06 10:26:04;;;;;;;6.10;5.45;;;12.40;58.50;;;;;;5020225;28;20029;-94
2021/05/06 10:28:34;;;;;;;7.63;6.00;;;12.60;58.00;;;;;;5022444;28;20022;-94
2021/05/06 10:31:01;;;;;;;6.30;5.47;;;12.60;55.00;;;;;;5021202;28;20036;-96
2021/05/06 10:33:28;;;;;;;6.70;5.70;;;12.70;55.40;;;;;;5019324;28;20025;-95
2021/05/06 10:35:55;;;;;;;5.32;4.68;;;12.80;55.30;;;;;;5028383;28;20022;-95
2021/05/06 10:38:22;;;;;;;5.28;4.63;;;13.00;55.40;;;;;;5036300;28;20041;-93
2021/05/06 10:40:49;;;;;;;7.40;6.15;;;13.10;55.40;;;;;;5021324;28;20013;-95
2021/05/06 10:43:28;;;;;;;6.47;5.43;;;13.10;54.00;;;;;;5023740;28;20057;-96
2021/05/06 10:46:02;;;;;;;8.20;5.40;;;13.20;54.30;;;;;;5006037;28;20037;-96
2021/05/06 10:49:03;;;;;;;6.10;5.47;;;13.30;53.70;;;;;;5022485;28;20508;-96
2021/05/06 10:51:35;;;;;;;9.15;6.78;;;13.30;54.00;;;;;;5000804;28;20096;-96
2021/05/06 10:54:29;;;;;;;6.78;5.03;;;13.30;53.20;;;;;;5023103;28;20021;-96
2021/05/06 10:56:57;;;;;;;7.18;6.47;;;13.10;53.20;;;;;;5026977;28;20064;-95
2021/05/06 10:59:28;;;;;;;10.07;6.57;;;12.90;53.10;;;;;;5011792;28;20018;-95
2021/05/06 11:01:54;;;;;;;6.38;5.22;;;12.70;52.10;;;;;;5026375;28;20022;-94
2021/05/06 11:04:34;;;;;;;5.57;4.40;;;12.60;52.30;;;;;;5008957;28;20132;-94
2021/05/06 11:07:15;;;;;;;6.15;4.80;;;12.70;52.40;;;;;;5026433;28;20025;-95
2021/05/06 11:09:46;;;;;;;5.82;4.80;;;13.00;52.40;;;;;;5010642;28;20495;-95
2021/05/06 11:12:26;;;;;;;7.78;5.38;;;13.10;52.00;;;;;;5008045;28;20539;-95
2021/05/06 11:14:58;;;;;;;6.43;5.57;;;13.10;51.70;;;;;;5023173;28;20391;-94
2021/05/06 11:17:44;;;;;;;7.60;6.77;;;13.10;52.00;;;;;;5026029;28;20037;-96
2021/05/06 11:20:10;;;;;;;10.27;9.27;;;13.20;52.30;;;;;;5025902;28;20549;-96
2021/05/06 11:22:50;;;;;;;8.60;7.70;;;12.90;52.50;;;;;;5010333;28;20029;-96
2021/05/06 11:25:41;;;;;;;7.95;6.88;;;12.50;53.80;;;;;;5006983;28;20026;-96
2021/05/06 11:28:18;;;;;;;5.65;5.15;;;12.60;53.90;;;;;;5007729;28;20029;-95
2021/05/06 11:30:44;;;;;;;7.78;6.00;;;12.70;53.60;;;;;;5029834;28;20018;-95
2021/05/06 11:33:27;;;;;;;6.65;5.57;;;12.70;52.70;;;;;;5027526;28;20041;-96
2021/05/06 11:36:10;;;;;;;7.38;6.63;;;12.70;52.00;;;;;;5036422;28;20037;-96
2021/05/06 11:38:50;;;;;;;7.10;6.10;;;12.50;51.60;;;;;;5037581;28;20040;-96
2021/05/06 11:41:30;;;;;;;5.95;4.90;;;12.40;51.60;;;;;;5036736;28;20045;-96
2021/05/06 11:44:17;;;;;;;5.60;4.20;;;12.40;52.10;;;;;;5032358;28;20090;-96
2021/05/06 11:46:58;;;;;;;5.80;5.00;;;12.70;52.30;;;;;;5020963;28;20026;-96
2021/05/06 11:49:26;;;;;;;4.82;4.32;;;12.90;50.90;;;;;;5024296;28;20010;-96
2021/05/06 11:51:53;;;;;;;6.72;5.18;;;13.00;50.50;;;;;;5025764;28;20017;-96
2021/05/06 11:54:23;;;;;;;6.65;5.60;;;13.20;50.80;;;;;;5008743;28;20018;-96
2021/05/06 11:57:01;;;;;;;5.47;4.05;;;13.30;50.10;;;;;;5010599;28;20048;-96
2021/05/06 11:59:29;;;;;;;6.18;5.53;;;13.30;50.00;;;;;;4999830;28;20018;-96
2021/05/06 12:01:57;;;;;;;7.90;6.40;;;13.30;49.40;;;;;;4999569;28;20026;-94
2021/05/06 12:04:26;;;;;;;5.75;4.65;;;13.40;49.30;;;;;;5019537;28;20100;-96
2021/05/06 12:06:53;;;;;;;6.97;6.22;;;13.70;49.00;;;;;;5007509;28;20030;-96
2021/05/06 12:09:27;;;;;;;6.47;5.03;;;14.00;47.70;;;;;;5017246;28;20018;-96
2021/05/06 12:11:53;;;;;;;4.20;3.72;;;14.10;47.00;;;;;;5028354;28;20399;-94
2021/05/06 12:14:33;;;;;;;6.03;5.05;;;14.40;47.40;;;;;;5045460;28;20160;-93
2021/05/06 12:16:58;;;;;;;6.43;4.90;;;14.50;46.50;;;;;;5028566;28;20043;-94
2021/05/06 12:19:24;;;;;;;4.80;4.30;;;14.40;46.00;;;;;;5002747;28;20026;-94
2021/05/06 12:21:53;;;;;;;5.38;4.35;;;14.50;46.10;;;;;;4997544;28;20029;-94
2021/05/06 12:24:31;;;;;;;4.20;3.80;;;14.60;46.20;;;;;;5025240;28;20025;-93
2021/05/06 12:26:57;;;;;;;3.58;3.28;;;14.50;46.30;;;;;;5034929;28;20655;-95
2021/05/06 12:29:27;;;;;;;3.60;3.28;;;14.40;47.50;;;;;;5020130;28;20014;-95
2021/05/06 12:31:54;;;;;;;3.30;3.00;;;14.30;48.40;;;;;;5026667;28;20067;-94
2021/05/06 12:34:24;;;;;;;3.45;3.15;;;13.90;49.10;;;;;;5015799;28;20032;-93
2021/05/06 12:36:58;;;;;;;2.60;2.40;;;13.50;49.80;;;;;;5039475;28;20029;-93
2021/05/06 12:39:24;;;;;;;2.83;2.53;;;13.10;50.80;;;;;;5038358;28;20024;-91
2021/05/06 12:41:59;;;;;;;4.03;2.88;;;12.90;51.70;;;;;;5019749;28;20772;-95
2021/05/06 12:44:43;;;;;;;3.63;3.10;;;12.70;52.50;;;;;;5033664;28;20032;-93
2021/05/06 12:47:19;;;;;;;4.03;3.30;;;12.50;52.90;;;;;;5035715;28;20483;-92
2021/05/06 12:49:47;;;;;;;3.00;2.70;;;12.20;53.40;;;;;;5052253;28;20025;-91
2021/05/06 12:52:29;;;;;;;2.78;2.58;;;11.90;54.80;;;;;;5032310;28;20021;-93
2021/05/06 12:54:55;;;;;;;6.78;3.25;;;11.80;55.00;;;;;;5045934;28;20134;-96
2021/05/06 12:57:21;;;;;;;2.72;2.47;;;11.60;56.10;;;;;;5020120;28;20048;-96
2021/05/06 12:59:50;;;;;;;3.25;2.80;;;11.50;56.60;;;;;;5032059;28;20022;-96
2021/05/06 13:02:19;;;;;;;3.80;3.40;;;11.50;56.90;;;;;;5021150;28;20037;-96
2021/05/06 13:04:51;;;;;;;3.50;3.20;;;11.40;57.30;;;;;;5031752;28;20034;-95
2021/05/06 13:07:19;;;;;;;3.60;3.05;;;11.40;57.70;;;;;;5039549;28;20025;-95
2021/05/06 13:09:50;;;;;;;3.38;3.08;;;11.40;58.00;;;;;;5023782;28;20088;-94
2021/05/06 13:12:16;;;;;;;4.05;3.70;;;11.40;58.30;;;;;;5040809;28;20132;-95
2021/05/06 13:14:50;;;;;;;3.30;3.00;;;11.40;58.30;;;;;;5005716;28;20034;-94
2021/05/06 13:17:24;;;;;;;2.90;2.60;;;11.50;58.30;;;;;;5013403;28;20490;-94
2021/05/06 13:19:50;;;;;;;3.38;3.08;;;11.60;58.20;;;;;;5036090;28;20044;-92
2021/05/06 13:22:20;;;;;;;3.85;3.45;;;11.70;58.10;;;;;;5016411;28;20029;-91
2021/05/06 13:24:48;;;;;;;3.70;3.30;;;11.90;57.90;;;;;;5005644;28;20018;-90
2021/05/06 13:27:27;;;;;;;4.80;3.58;;;12.10;57.50;;;;;;5015163;28;20108;-92
2021/05/06 13:30:03;;;;;;;3.90;3.50;;;12.30;57.30;;;;;;5030959;28;20033;-90
2021/05/06 13:32:37;;;;;;;4.10;3.70;;;12.50;57.00;;;;;;5010283;28;20487;-92
2021/05/06 13:35:05;;;;;;;4.00;3.60;;;12.60;56.40;;;;;;5033005;28;20025;-92
2021/05/06 13:37:41;;;;;;;4.15;3.75;;;12.70;55.80;;;;;;5006978;28;20065;-91
2021/05/06 13:40:07;;;;;;;4.30;3.80;;;12.80;55.70;;;;;;5032688;28;20041;-93
2021/05/06 13:42:36;;;;;;;4.15;3.75;;;12.80;55.60;;;;;;5032034;28;20121;-89
2021/05/06 13:45:03;;;;;;;3.50;3.20;;;13.00;55.30;;;;;;5020926;28;20021;-92
2021/05/06 13:47:29;;;;;;;5.50;5.00;;;13.00;54.70;;;;;;5024112;28;20523;-93
2021/05/06 13:49:55;;;;;;;4.03;3.63;;;13.00;54.30;;;;;;5034413;28;20028;-94
2021/05/06 13:52:23;;;;;;;4.28;3.83;;;13.00;54.50;;;;;;5037342;28;20104;-93
2021/05/06 13:54:50;;;;;;;4.10;3.70;;;12.90;54.40;;;;;;5025808;28;20044;-92
2021/05/06 13:57:16;;;;;;;3.67;3.05;;;12.90;54.30;;;;;;5018958;28;20123;-93
2021/05/06 13:59:42;;;;;;;3.15;2.85;;;12.90;54.40;;;;;;5050067;28;20028;-93
2021/05/06 14:02:08;;;;;;;3.50;2.90;;;12.80;54.40;;;;;;5022865;28;20033;-92
2021/05/06 14:04:33;;;;;;;3.20;2.80;;;12.80;54.60;;;;;;5019368;28;20021;-93
2021/05/06 14:07:03;;;;;;;3.17;2.88;;;12.80;54.40;;;;;;5014375;28;20028;-94
2021/05/06 14:09:29;;;;;;;2.53;2.33;;;12.80;54.20;;;;;;5014128;28;20537;-95
2021/05/06 14:11:54;;;;;;;3.03;2.72;;;12.90;54.30;;;;;;5017051;28;20021;-93
2021/05/06 14:14:20;;;;;;;2.92;2.63;;;12.90;54.40;;;;;;5014204;28;20036;-93
2021/05/06 14:16:46;;;;;;;3.20;2.90;;;13.00;54.20;;;;;;5013048;28;20033;-92
2021/05/06 14:19:14;;;;;;;2.97;2.53;;;13.00;53.90;;;;;;5019408;28;20267;-91
2021/05/06 14:21:42;;;;;;;3.13;2.83;;;12.90;53.80;;;;;;5014655;28;20030;-94
2021/05/06 14:24:10;;;;;;;2.92;2.63;;;12.80;53.70;;;;;;5032271;28;20079;-90
2021/05/06 14:26:36;;;;;;;2.58;2.20;;;12.90;54.00;;;;;;5018485;28;20029;-91
2021/05/06 14:29:02;;;;;;;2.58;2.20;;;13.00;54.00;;;;;;5033020;28;20018;-92
2021/05/06 14:31:28;;;;;;;3.08;2.40;;;13.00;54.00;;;;;;5031341;28;20037;-91
2021/05/06 14:33:53;;;;;;;2.40;2.20;;;13.00;53.90;;;;;;5043005;28;20014;-95
2021/05/06 14:36:19;;;;;;;3.42;2.88;;;13.10;53.80;;;;;;5018691;28;20025;-93
2021/05/06 14:38:44;;;;;;;3.20;2.88;;;13.00;53.80;;;;;;5018277;28;20025;-95
2021/05/06 14:41:11;;;;;;;2.95;2.55;;;13.10;53.90;;;;;;5018059;28;20156;-94
2021/05/06 14:43:37;;;;;;;3.13;2.83;;;13.00;53.80;;;;;;5028249;28;20048;-92
2021/05/06 14:46:03;;;;;;;3.53;3.22;;;13.10;54.00;;;;;;5036073;28;20033;-94
2021/05/06 14:48:29;;;;;;;3.90;3.00;;;13.10;53.70;;;;;;5036877;28;20142;-94
2021/05/06 14:51:01;;;;;;;3.65;2.88;;;13.00;53.30;;;;;;5019034;28;20029;-96
2021/05/06 14:53:29;;;;;;;2.93;2.67;;;13.00;53.30;;;;;;5034215;28;20476;-93
2021/05/06 14:55:55;;;;;;;3.20;2.90;;;13.10;53.20;;;;;;5014905;28;20518;-93
2021/05/06 14:58:20;;;;;;;4.00;3.40;;;13.00;52.70;;;;;;5034737;28;20042;-94
2021/05/06 15:00:46;;;;;;;4.22;3.65;;;13.00;52.80;;;;;;5018516;28;20045;-92
2021/05/06 15:03:12;;;;;;;4.30;3.72;;;13.00;52.50;;;;;;5017649;28;20018;-92
2021/05/06 15:05:37;;;;;;;3.85;3.28;;;13.10;52.50;;;;;;5017612;28;20345;-91
2021/05/06 15:08:03;;;;;;;4.40;3.67;;;13.10;52.30;;;;;;5035949;28;20021;-92
2021/05/06 15:10:30;;;;;;;3.28;2.95;;;13.20;52.20;;;;;;5034188;28;20040;-91
2021/05/06 15:12:56;;;;;;;3.17;2.65;;;13.30;52.00;;;;;;5012418;28;20116;-92
2021/05/06 15:15:22;;;;;;;3.78;3.28;;;13.30;51.80;;;;;;5002143;28;20113;-91
2021/05/06 15:17:51;;;;;;;3.13;2.83;;;13.30;51.70;;;;;;5029211;28;20030;-92
2021/05/06 15:20:17;;;;;;;3.85;3.47;;;13.40;51.80;;;;;;5011006;28;20021;-91
2021/05/06 15:22:42;;;;;;;4.63;3.63;;;13.40;51.50;;;;;;5034552;28;20109;-92
2021/05/06 15:25:11;;;;;;;4.10;3.58;;;13.40;51.40;;;;;;5032484;28;20021;-93
2021/05/06 15:27:45;;;;;;;3.50;3.05;;;13.50;51.30;;;;;;5032620;28;20021;-91
2021/05/06 15:30:13;;;;;;;3.83;3.40;;;13.50;51.10;;;;;;5014570;28;20030;-91
2021/05/06 15:32:39;;;;;;;3.30;3.00;;;13.50;51.00;;;;;;5032236;28;20093;-91
2021/05/06 15:35:06;;;;;;;3.85;3.33;;;13.60;51.10;;;;;;5010570;28;20025;-91
2021/05/06 15:37:32;;;;;;;3.22;2.90;;;13.60;51.10;;;;;;5012962;28;20044;-92
2021/05/06 15:39:57;;;;;;;3.42;3.13;;;13.60;51.10;;;;;;5013974;28;20047;-93
2021/05/06 15:42:23;;;;;;;4.60;3.67;;;13.70;51.70;;;;;;5032949;28;20104;-92
2021/05/06 15:44:48;;;;;;;3.30;2.90;;;13.70;50.50;;;;;;5013456;28;20493;-91
2021/05/06 15:47:14;;;;;;;3.42;2.90;;;13.80;50.60;;;;;;5012306;28;20076;-90
2021/05/06 15:49:40;;;;;;;3.67;3.33;;;13.90;50.30;;;;;;5029207;28;20029;-93
2021/05/06 15:52:11;;;;;;;5.07;4.57;;;13.80;49.90;;;;;;5033115;28;20017;-93
2021/05/06 15:54:38;;;;;;;4.25;3.85;;;13.80;49.10;;;;;;5031193;28;20065;-90
2021/05/06 15:57:06;;;;;;;4.07;3.47;;;13.70;49.00;;;;;;5031657;28;20149;-91
2021/05/06 15:59:31;;;;;;;3.47;3.13;;;13.70;49.10;;;;;;5006025;28;20029;-92
2021/05/06 16:01:57;;;;;;;3.80;2.85;;;13.60;49.40;;;;;;5035610;28;20033;-93
2021/05/06 16:04:29;;;;;;;3.88;3.38;;;13.50;49.50;;;;;;5031720;28;20087;-91
2021/05/06 16:06:55;;;;;;;3.30;2.80;;;13.50;49.60;;;;;;5007915;28;20025;-90
2021/05/06 16:09:21;;;;;;;3.40;3.03;;;13.40;49.80;;;;;;5029720;28;20549;-90
2021/05/06 16:11:46;;;;;;;3.97;3.20;;;13.40;49.90;;;;;;5025410;28;20072;-91
2021/05/06 16:14:12;;;;;;;3.88;3.30;;;13.30;49.60;;;;;;5024910;28;20025;-93
2021/05/06 16:16:39;;;;;;;4.45;3.97;;;13.20;49.90;;;;;;5026073;28;20042;-95
2021/05/06 16:19:06;;;;;;;3.78;3.05;;;13.10;49.90;;;;;;5024198;28;20552;-94
2021/05/06 16:21:32;;;;;;;3.20;2.90;;;13.10;50.30;;;;;;5021369;28;20408;-95
2021/05/06 16:23:57;;;;;;;3.70;3.03;;;13.10;50.40;;;;;;5026269;28;20133;-95
2021/05/06 16:26:23;;;;;;;3.38;3.08;;;13.10;50.40;;;;;;5028265;28;20034;-95
2021/05/06 16:28:48;;;;;;;3.30;3.00;;;12.90;50.10;;;;;;5027996;28;20029;-94
2021/05/06 16:31:14;;;;;;;3.33;3.03;;;12.90;50.50;;;;;;5025032;28;20056;-95
2021/05/06 16:33:45;;;;;;;4.85;3.50;;;12.90;50.60;;;;;;5028271;28;20061;-96
2021/05/06 16:38:44;;;;;;;3.20;2.90;;;12.90;50.60;;;;;;5025639;28;20048;-93
2021/05/06 16:41:11;;;;;;;2.75;2.40;;;12.80;50.40;;;;;;5016965;28;20042;-96
2021/05/06 16:46:16;;;;;;;3.90;2.95;;;12.80;50.80;;;;;;5028862;28;20037;-94